Time;durP1;ratioP1;P1;durP2;ratioP2;P2;SDS_P1;SDS_P2;PMS_P1;PMS_P2;Temp;Humidity;BMP_temperature;BMP_pressure;BME280_temperature;BME280_humidity;BME280_pressure;Samples;Min_cycle;Max_cycle;Signal;HPM_P1;HPM_P2
2023/03/11 00:02:28;;;;;;;2.10;1.20;;;;;;;;;;6222549;28;20315;-73
2023/03/11 00:05:31;;;;;;;2.70;1.00;;;;;;;;;;6226011;28;20080;-72
2023/03/11 00:08:34;;;;;;;2.78;0.88;;;;;;;;;;6224742;28;20058;-72
2023/03/11 00:11:37;;;;;;;2.10;0.88;;;;;;;;;;6223446;28;20069;-69
2023/03/11 00:14:39;;;;;;;3.28;0.90;;;;;;;;;;6223360;28;20073;-67
2023/03/11 00:17:40;;;;;;;1.30;0.70;;;;;;;;;;6224061;28;20270;-73
2023/03/11 00:20:44;;;;;;;5.10;1.10;;;;;;;;;;6227096;28;20077;-73
2023/03/11 00:23:46;;;;;;;5.78;0.80;;;;;;;;;;6224962;28;20215;-66
2023/03/11 00:26:49;;;;;;;5.20;0.88;;;;;;;;;;6226970;28;20046;-70
2023/03/11 00:29:51;;;;;;;1.98;0.80;;;;;;;;;;6224559;28;20157;-72
2023/03/11 00:32:54;;;;;;;5.13;0.70;;;;;;;;;;6225011;28;20376;-72
2023/03/11 00:35:55;;;;;;;1.02;0.65;;;;;;;;;;6225121;28;20050;-72
2023/03/11 00:38:57;;;;;;;1.23;0.75;;;;;;;;;;6226846;28;20054;-70
2023/03/11 00:42:00;;;;;;;2.65;0.70;;;;;;;;;;6226074;28;20061;-72
2023/03/11 00:45:02;;;;;;;0.73;0.52;;;;;;;;;;6223846;28;20057;-72
2023/03/11 00:48:04;;;;;;;5.30;0.60;;;;;;;;;;6223520;28;20050;-72
2023/03/11 00:51:07;;;;;;;1.40;0.52;;;;;;;;;;6224490;28;20054;-70
2023/03/11 00:54:08;;;;;;;1.45;0.60;;;;;;;;;;6223445;28;20341;-72
2023/03/11 00:57:11;;;;;;;1.88;0.82;;;;;;;;;;6226636;28;20057;-73
2023/03/11 01:00:15;;;;;;;4.68;0.80;;;;;;;;;;6223594;28;20050;-70
2023/03/11 01:03:16;;;;;;;1.15;0.60;;;;;;;;;;6226404;28;20065;-73
2023/03/11 01:06:18;;;;;;;4.53;0.98;;;;;;;;;;6223848;28;20050;-72
2023/03/11 01:09:20;;;;;;;4.15;0.70;;;;;;;;;;6226545;28;20057;-69
2023/03/11 01:12:23;;;;;;;1.88;0.70;;;;;;;;;;6226935;28;20338;-72
2023/03/11 01:15:27;;;;;;;3.45;0.60;;;;;;;;;;6222394;28;20072;-72
2023/03/11 01:18:29;;;;;;;1.30;0.60;;;;;;;;;;6226986;28;20038;-72
2023/03/11 01:21:30;;;;;;;2.10;0.70;;;;;;;;;;6225444;28;20105;-71
2023/03/11 01:24:32;;;;;;;2.30;0.80;;;;;;;;;;6223045;28;20050;-74
2023/03/11 01:27:35;;;;;;;2.38;0.63;;;;;;;;;;6225607;28;20277;-73
2023/03/11 01:30:39;;;;;;;2.22;0.60;;;;;;;;;;6224694;28;20215;-74
2023/03/11 01:33:40;;;;;;;10.82;4.68;;;;;;;;;;6224209;28;20127;-74
2023/03/11 01:36:42;;;;;;;9.75;5.53;;;;;;;;;;6226284;28;20065;-73
2023/03/11 01:39:44;;;;;;;11.82;5.82;;;;;;;;;;6227289;28;20440;-75
2023/03/11 01:42:47;;;;;;;13.18;4.32;;;;;;;;;;6225671;28;20050;-70
2023/03/11 01:46:08;;;;;;;40.42;17.25;;;;;;;;;;6225814;28;21112;-73
2023/03/11 01:49:12;;;;;;;2.67;1.58;;;;;;;;;;6220298;28;20054;-75
2023/03/11 01:52:14;;;;;;;3.85;0.85;;;;;;;;;;6216840;28;20254;-71
2023/03/11 01:55:17;;;;;;;6.07;2.15;;;;;;;;;;6219757;28;20140;-70
2023/03/11 01:58:23;;;;;;;3.08;1.00;;;;;;;;;;6219941;28;20057;-74
2023/03/11 02:01:25;;;;;;;2.58;0.85;;;;;;;;;;6220521;28;20089;-73
2023/03/11 02:04:28;;;;;;;4.45;1.02;;;;;;;;;;6221773;28;20130;-73
2023/03/11 02:07:30;;;;;;;0.82;0.50;;;;;;;;;;6220939;28;20057;-73
2023/03/11 02:10:32;;;;;;;0.80;0.57;;;;;;;;;;6221283;28;20045;-71
2023/03/11 02:13:36;;;;;;;3.10;0.65;;;;;;;;;;6218743;28;20117;-75
2023/03/11 02:16:38;;;;;;;1.40;0.55;;;;;;;;;;6222505;28;20064;-74
2023/03/11 02:19:56;;;;;;;0.85;0.57;;;;;;;;;;6215706;28;20117;-70
2023/03/11 02:22:58;;;;;;;0.60;0.40;;;;;;;;;;6220588;28;20281;-74
2023/03/11 02:26:03;;;;;;;1.05;0.50;;;;;;;;;;6219571;28;20058;-73
2023/03/11 02:29:07;;;;;;;1.75;0.52;;;;;;;;;;6222698;28;22399;-73
2023/03/11 02:32:10;;;;;;;1.73;0.75;;;;;;;;;;6216531;28;20128;-66
2023/03/11 02:35:12;;;;;;;0.85;0.40;;;;;;;;;;6219998;28;20050;-74
2023/03/11 02:38:13;;;;;;;4.60;0.65;;;;;;;;;;6217068;28;20088;-73
2023/03/11 02:41:15;;;;;;;1.15;0.50;;;;;;;;;;6219684;28;20069;-73
2023/03/11 02:44:19;;;;;;;1.40;0.50;;;;;;;;;;6220177;28;20073;-69
2023/03/11 02:47:20;;;;;;;2.55;0.90;;;;;;;;;;6221737;28;20053;-71
2023/03/11 02:50:22;;;;;;;0.63;0.40;;;;;;;;;;6220358;28;20049;-72
2023/03/11 02:53:26;;;;;;;0.97;0.50;;;;;;;;;;6219123;28;20046;-74
2023/03/11 02:56:28;;;;;;;2.65;0.30;;;;;;;;;;6220013;28;20057;-75
2023/03/11 02:59:31;;;;;;;1.52;0.60;;;;;;;;;;6223725;28;20070;-72
2023/03/11 03:02:33;;;;;;;1.67;0.55;;;;;;;;;;6216632;28;20080;-72
2023/03/11 03:05:35;;;;;;;1.50;0.52;;;;;;;;;;6218810;28;20058;-66
2023/03/11 03:08:36;;;;;;;1.20;0.52;;;;;;;;;;6219538;28;20106;-68
2023/03/11 03:11:38;;;;;;;1.48;0.70;;;;;;;;;;6221404;28;20267;-69
2023/03/11 03:14:41;;;;;;;0.70;0.40;;;;;;;;;;6218826;28;20057;-72
2023/03/11 03:17:44;;;;;;;2.25;0.52;;;;;;;;;;6218705;28;20057;-74
2023/03/11 03:20:46;;;;;;;7.00;0.68;;;;;;;;;;6218352;28;20066;-73
2023/03/11 03:23:48;;;;;;;0.88;0.50;;;;;;;;;;6218803;28;20058;-73
2023/03/11 03:26:50;;;;;;;1.08;0.60;;;;;;;;;;6213818;28;20237;-65
2023/03/11 03:29:53;;;;;;;3.63;0.80;;;;;;;;;;6220493;28;20064;-69
2023/03/11 03:32:55;;;;;;;0.70;0.50;;;;;;;;;;6220540;28;20233;-72
2023/03/11 03:35:57;;;;;;;0.73;0.40;;;;;;;;;;6218017;28;20060;-73
2023/03/11 03:39:00;;;;;;;1.05;0.50;;;;;;;;;;6219851;28;20188;-74
2023/03/11 03:42:02;;;;;;;0.95;0.50;;;;;;;;;;6219678;28;20129;-73
2023/03/11 03:45:08;;;;;;;0.57;0.38;;;;;;;;;;6223870;28;20054;-74
2023/03/11 03:48:09;;;;;;;0.88;0.47;;;;;;;;;;6224337;28;20046;-73
2023/03/11 03:51:12;;;;;;;1.95;0.68;;;;;;;;;;6224401;28;20049;-73
2023/03/11 03:54:15;;;;;;;1.10;0.70;;;;;;;;;;6220731;28;22310;-74
2023/03/11 03:57:17;;;;;;;1.50;0.55;;;;;;;;;;6218487;28;20399;-72
2023/03/11 04:00:21;;;;;;;1.85;0.60;;;;;;;;;;6224741;28;20046;-72
2023/03/11 04:03:22;;;;;;;2.88;0.80;;;;;;;;;;6223203;28;20221;-70
2023/03/11 04:06:27;;;;;;;1.50;0.77;;;;;;;;;;6225767;28;20054;-73
2023/03/11 04:09:29;;;;;;;2.90;0.90;;;;;;;;;;6224481;28;20064;-73
2023/03/11 04:12:30;;;;;;;0.75;0.32;;;;;;;;;;6220640;28;20261;-73
2023/03/11 04:15:33;;;;;;;0.73;0.70;;;;;;;;;;6221723;28;20054;-72
2023/03/11 04:18:35;;;;;;;1.88;0.70;;;;;;;;;;6224376;28;20038;-72
2023/03/11 04:21:38;;;;;;;1.33;0.43;;;;;;;;;;6220346;28;20060;-73
2023/03/11 04:24:39;;;;;;;1.00;0.40;;;;;;;;;;6222918;28;20100;-70
2023/03/11 04:27:44;;;;;;;0.85;0.43;;;;;;;;;;6224099;28;20065;-74
2023/03/11 04:30:48;;;;;;;2.35;0.73;;;;;;;;;;6221212;28;20061;-73
2023/03/11 04:33:49;;;;;;;0.90;0.70;;;;;;;;;;6220463;28;20229;-74
2023/03/11 04:36:52;;;;;;;1.23;0.60;;;;;;;;;;6221970;28;20120;-73
2023/03/11 04:39:54;;;;;;;0.85;0.50;;;;;;;;;;6220692;28;20077;-69
2023/03/11 04:42:56;;;;;;;1.85;0.43;;;;;;;;;;6220107;28;20054;-74
2023/03/11 04:45:59;;;;;;;1.83;0.63;;;;;;;;;;6219664;28;20265;-73
2023/03/11 04:49:01;;;;;;;0.60;0.40;;;;;;;;;;6222674;28;20054;-74
2023/03/11 04:52:03;;;;;;;1.33;0.50;;;;;;;;;;6217815;28;20054;-73
2023/03/11 04:55:05;;;;;;;1.30;0.50;;;;;;;;;;6221717;28;20353;-74
2023/03/11 04:58:07;;;;;;;0.85;0.32;;;;;;;;;;6222101;28;20077;-73
2023/03/11 05:01:10;;;;;;;2.03;0.55;;;;;;;;;;6221188;28;20303;-69
2023/03/11 05:04:12;;;;;;;0.93;0.50;;;;;;;;;;6220996;28;20330;-73
2023/03/11 05:07:14;;;;;;;0.98;0.70;;;;;;;;;;6222409;28;20053;-74
2023/03/11 05:10:21;;;;;;;0.85;0.47;;;;;;;;;;6219503;28;20061;-71
2023/03/11 05:13:22;;;;;;;2.25;0.60;;;;;;;;;;6219543;28;20058;-73
2023/03/11 05:16:25;;;;;;;3.55;0.55;;;;;;;;;;6224925;28;20556;-73
2023/03/11 05:19:34;;;;;;;1.10;0.60;;;;;;;;;;6224326;28;20217;-66
2023/03/11 05:22:35;;;;;;;0.73;0.40;;;;;;;;;;6221271;28;20080;-73
2023/03/11 05:25:37;;;;;;;1.23;0.43;;;;;;;;;;6220074;28;20058;-73
2023/03/11 05:28:39;;;;;;;0.73;0.43;;;;;;;;;;6219023;28;20076;-74
2023/03/11 05:31:42;;;;;;;1.10;0.50;;;;;;;;;;6220845;28;20084;-68
2023/03/11 05:34:44;;;;;;;1.92;0.50;;;;;;;;;;6219288;28;20089;-72
2023/03/11 05:37:48;;;;;;;0.90;0.30;;;;;;;;;;6220772;28;20352;-66
2023/03/11 05:40:50;;;;;;;1.67;0.30;;;;;;;;;;6221957;28;20058;-73
2023/03/11 05:43:51;;;;;;;5.10;1.05;;;;;;;;;;6217907;28;20053;-73
2023/03/11 05:46:54;;;;;;;1.30;0.55;;;;;;;;;;6221334;28;20053;-71
2023/03/11 05:49:56;;;;;;;1.23;0.50;;;;;;;;;;6221222;28;20050;-72
2023/03/11 05:52:58;;;;;;;1.58;0.50;;;;;;;;;;6221275;28;20042;-73
2023/03/11 05:56:00;;;;;;;0.85;0.47;;;;;;;;;;6222246;28;20053;-72
2023/03/11 05:59:02;;;;;;;3.53;0.60;;;;;;;;;;6220534;28;20128;-72
2023/03/11 06:02:05;;;;;;;1.30;0.70;;;;;;;;;;6215361;28;20053;-73
2023/03/11 06:05:08;;;;;;;1.25;0.65;;;;;;;;;;6219378;28;20042;-72
2023/03/11 06:08:10;;;;;;;1.17;0.68;;;;;;;;;;6217416;28;20073;-74
2023/03/11 06:11:11;;;;;;;1.42;0.55;;;;;;;;;;6220539;28;20046;-73
2023/03/11 06:14:14;;;;;;;1.80;0.73;;;;;;;;;;6218661;28;20042;-68
2023/03/11 06:17:17;;;;;;;1.52;0.73;;;;;;;;;;6218051;28;20050;-73
2023/03/11 06:20:19;;;;;;;2.88;0.70;;;;;;;;;;6219686;28;20061;-70
2023/03/11 06:23:21;;;;;;;2.30;0.90;;;;;;;;;;6217642;28;20211;-71
2023/03/11 06:26:23;;;;;;;2.03;0.70;;;;;;;;;;6217591;28;20058;-73
2023/03/11 06:29:25;;;;;;;3.45;0.63;;;;;;;;;;6222870;28;20362;-73
2023/03/11 06:32:29;;;;;;;1.77;0.68;;;;;;;;;;6215499;28;20353;-72
2023/03/11 06:35:30;;;;;;;1.10;0.50;;;;;;;;;;6217846;28;20057;-74
2023/03/11 06:38:33;;;;;;;2.35;0.65;;;;;;;;;;6219698;28;20053;-73
2023/03/11 06:41:34;;;;;;;0.88;0.57;;;;;;;;;;6224365;28;20101;-73
2023/03/11 06:44:36;;;;;;;2.90;0.70;;;;;;;;;;6218859;28;20053;-74
2023/03/11 06:47:39;;;;;;;3.05;0.90;;;;;;;;;;6216200;28;20069;-72
2023/03/11 06:50:41;;;;;;;1.52;0.52;;;;;;;;;;6220901;28;20057;-73
2023/03/11 06:53:44;;;;;;;2.80;0.70;;;;;;;;;;6217668;28;20049;-73
2023/03/11 06:56:45;;;;;;;1.00;0.40;;;;;;;;;;6220997;28;20050;-73
2023/03/11 06:59:47;;;;;;;1.02;0.50;;;;;;;;;;6216980;28;20096;-73
2023/03/11 07:02:50;;;;;;;3.25;0.60;;;;;;;;;;6218826;28;20278;-72
2023/03/11 07:05:52;;;;;;;1.80;0.67;;;;;;;;;;6215729;28;20327;-73
2023/03/11 07:08:54;;;;;;;1.45;0.60;;;;;;;;;;6217693;28;20058;-74
2023/03/11 07:11:56;;;;;;;1.90;0.70;;;;;;;;;;6223339;28;20064;-70
2023/03/11 07:14:58;;;;;;;1.33;0.80;;;;;;;;;;6221656;28;20046;-72
2023/03/11 07:18:01;;;;;;;2.35;0.95;;;;;;;;;;6222167;28;20365;-73
2023/03/11 07:21:04;;;;;;;2.35;0.50;;;;;;;;;;6224045;28;20050;-69
2023/03/11 07:24:06;;;;;;;1.67;0.52;;;;;;;;;;6220057;28;20122;-73
2023/03/11 07:27:08;;;;;;;1.30;0.50;;;;;;;;;;6223303;28;20065;-72
2023/03/11 07:30:10;;;;;;;2.08;0.60;;;;;;;;;;6223053;28;20050;-72
2023/03/11 07:33:14;;;;;;;0.93;0.60;;;;;;;;;;6224826;28;20062;-71
2023/03/11 07:36:17;;;;;;;0.85;0.50;;;;;;;;;;6221003;28;20058;-77
2023/03/11 07:39:19;;;;;;;6.65;0.90;;;;;;;;;;6223708;28;20100;-73
2023/03/11 07:42:20;;;;;;;3.53;0.73;;;;;;;;;;6222006;28;20588;-72
2023/03/11 07:45:23;;;;;;;2.00;0.65;;;;;;;;;;6222164;28;20058;-70
2023/03/11 07:48:26;;;;;;;1.75;0.80;;;;;;;;;;6223364;28;20050;-73
2023/03/11 07:51:29;;;;;;;4.00;0.57;;;;;;;;;;6223622;28;20072;-70
2023/03/11 07:54:30;;;;;;;1.90;0.75;;;;;;;;;;6220725;28;20056;-74
2023/03/11 07:57:32;;;;;;;2.65;0.63;;;;;;;;;;6223344;28;20053;-73
2023/03/11 08:00:34;;;;;;;2.97;0.80;;;;;;;;;;6224419;28;20724;-72
2023/03/11 08:03:37;;;;;;;3.22;0.68;;;;;;;;;;6223314;28;20054;-73
2023/03/11 08:06:39;;;;;;;2.58;0.80;;;;;;;;;;6220036;28;20054;-74
2023/03/11 08:09:41;;;;;;;2.15;0.63;;;;;;;;;;6219590;28;20061;-70
2023/03/11 08:12:42;;;;;;;1.13;0.68;;;;;;;;;;6220783;28;20057;-73
2023/03/11 08:15:44;;;;;;;0.68;0.50;;;;;;;;;;6222040;28;20309;-72
2023/03/11 08:18:48;;;;;;;2.88;0.75;;;;;;;;;;6220548;28;20053;-73
2023/03/11 08:21:49;;;;;;;3.38;0.73;;;;;;;;;;6221323;28;20054;-73
2023/03/11 08:24:51;;;;;;;2.20;0.60;;;;;;;;;;6224799;28;20381;-73
2023/03/11 08:27:53;;;;;;;2.75;0.70;;;;;;;;;;6223238;28;20057;-72
2023/03/11 08:30:55;;;;;;;1.58;0.70;;;;;;;;;;6222078;28;20045;-73
2023/03/11 08:34:00;;;;;;;1.13;0.50;;;;;;;;;;6223844;28;20054;-73
2023/03/11 08:37:01;;;;;;;3.28;0.80;;;;;;;;;;6223865;28;20373;-76
2023/03/11 08:40:04;;;;;;;0.98;0.45;;;;;;;;;;6219646;28;20038;-74
2023/03/11 08:43:06;;;;;;;2.47;0.60;;;;;;;;;;6222097;28;20045;-73
2023/03/11 08:46:08;;;;;;;1.35;0.60;;;;;;;;;;6224116;28;20045;-72
2023/03/11 08:49:11;;;;;;;3.00;0.60;;;;;;;;;;6226327;28;20069;-72
2023/03/11 08:52:13;;;;;;;1.55;0.70;;;;;;;;;;6226110;28;20812;-74
2023/03/11 08:55:22;;;;;;;0.85;0.47;;;;;;;;;;6227839;28;20046;-73
2023/03/11 08:58:24;;;;;;;1.83;0.60;;;;;;;;;;6228076;28;20069;-73
2023/03/11 09:01:25;;;;;;;3.90;0.68;;;;;;;;;;6224156;28;20058;-73
2023/03/11 09:04:28;;;;;;;1.52;0.85;;;;;;;;;;6225431;28;20088;-71
2023/03/11 09:07:30;;;;;;;1.52;0.60;;;;;;;;;;6229393;28;20042;-74
2023/03/11 09:10:32;;;;;;;2.42;0.70;;;;;;;;;;6226001;28;20360;-72
2023/03/11 09:13:34;;;;;;;0.95;0.60;;;;;;;;;;6226720;28;20376;-74
2023/03/11 09:16:35;;;;;;;1.10;0.60;;;;;;;;;;6224514;28;20064;-74
2023/03/11 09:19:39;;;;;;;5.00;0.50;;;;;;;;;;6227183;28;20277;-71
2023/03/11 09:22:40;;;;;;;1.13;0.40;;;;;;;;;;6224389;28;20054;-72
2023/03/11 09:25:42;;;;;;;2.80;0.45;;;;;;;;;;6229419;28;20074;-71
2023/03/11 09:28:47;;;;;;;0.52;0.30;;;;;;;;;;6224414;28;20066;-73
2023/03/11 09:31:49;;;;;;;0.52;0.22;;;;;;;;;;6225113;28;20385;-74
2023/03/11 09:34:52;;;;;;;2.47;0.38;;;;;;;;;;6222613;28;20045;-77
2023/03/11 09:37:53;;;;;;;1.83;0.30;;;;;;;;;;6224343;28;20069;-71
2023/03/11 09:41:00;;;;;;;1.33;0.30;;;;;;;;;;6227439;28;20057;-74
2023/03/11 09:44:10;;;;;;;1.75;0.30;;;;;;;;;;6226636;28;20108;-74
2023/03/11 09:47:44;;;;;;;0.38;0.30;;;;;;;;;;6224635;28;20054;-74
2023/03/11 09:50:52;;;;;;;1.50;0.50;;;;;;;;;;6219058;28;20057;-74
2023/03/11 09:53:56;;;;;;;2.90;0.47;;;;;;;;;;6251007;28;20045;-75
2023/03/11 09:56:59;;;;;;;1.77;0.30;;;;;;;;;;6252219;28;20270;-74
2023/03/11 10:00:01;;;;;;;;;;;;;;;;;;6243501;28;20050;-74
2023/03/11 10:03:03;;;;;;;0.98;0.38;;;;;;;;;;6237516;28;19925;-71
2023/03/11 10:06:13;;;;;;;0.35;0.25;;;;;;;;;;6244003;28;20057;-68
2023/03/11 10:09:29;;;;;;;0.80;0.35;;;;;;;;;;6245803;28;20045;-71
2023/03/11 10:12:40;;;;;;;0.55;0.25;;;;;;;;;;6244024;28;20057;-75
2023/03/11 10:15:47;;;;;;;0.88;0.20;;;;;;;;;;6246290;28;20089;-76
2023/03/11 10:18:55;;;;;;;3.05;0.30;;;;;;;;;;6243662;28;20042;-71
2023/03/11 10:22:04;;;;;;;0.20;0.20;;;;;;;;;;6243695;28;20118;-71
2023/03/11 10:25:10;;;;;;;0.47;0.30;;;;;;;;;;6245546;28;20306;-72
2023/03/11 10:28:13;;;;;;;0.80;0.40;;;;;;;;;;6247842;28;20072;-76
2023/03/11 10:31:22;;;;;;;1.00;0.47;;;;;;;;;;6246515;28;20131;-76
2023/03/11 10:34:27;;;;;;;2.33;0.40;;;;;;;;;;6242823;28;20057;-74
2023/03/11 10:37:33;;;;;;;4.80;0.50;;;;;;;;;;6248607;28;20057;-76
2023/03/11 10:40:37;;;;;;;0.47;0.30;;;;;;;;;;6244435;28;20065;-77
2023/03/11 10:43:41;;;;;;;1.40;0.30;;;;;;;;;;6243939;28;20061;-75
2023/03/11 10:46:42;;;;;;;1.02;0.55;;;;;;;;;;6221652;28;20045;-77
2023/03/11 10:49:44;;;;;;;2.65;0.30;;;;;;;;;;6222785;28;20058;-75
2023/03/11 10:53:06;;;;;;;1.95;0.22;;;;;;;;;;6218128;28;20141;-76
2023/03/11 10:56:24;;;;;;;2.03;0.38;;;;;;;;;;6220527;28;20085;-69
2023/03/11 10:59:29;;;;;;;0.75;0.38;;;;;;;;;;6231860;28;20054;-76
2023/03/11 11:02:33;;;;;;;1.65;0.20;;;;;;;;;;6220951;28;20095;-76
2023/03/11 11:05:35;;;;;;;2.85;0.57;;;;;;;;;;6219500;28;20076;-75
2023/03/11 11:08:38;;;;;;;0.20;0.17;;;;;;;;;;6219398;28;20065;-73
2023/03/11 11:11:40;;;;;;;2.08;0.30;;;;;;;;;;6218617;28;20065;-75
2023/03/11 11:14:46;;;;;;;0.85;0.20;;;;;;;;;;6215824;28;20053;-76
2023/03/11 11:17:48;;;;;;;1.30;0.40;;;;;;;;;;6219950;28;20321;-75
2023/03/11 11:20:56;;;;;;;2.13;0.30;;;;;;;;;;6216008;28;20314;-75
2023/03/11 11:24:12;;;;;;;2.92;0.40;;;;;;;;;;6218814;28;20257;-75
2023/03/11 11:27:17;;;;;;;1.65;0.20;;;;;;;;;;6222114;28;20724;-75
2023/03/11 11:30:19;;;;;;;4.03;0.30;;;;;;;;;;6217264;28;20238;-76
2023/03/11 11:33:24;;;;;;;1.80;0.30;;;;;;;;;;6221250;28;20061;-72
2023/03/11 11:36:29;;;;;;;2.35;0.32;;;;;;;;;;6221041;28;20050;-76
2023/03/11 11:39:37;;;;;;;1.27;0.22;;;;;;;;;;6219382;28;20081;-67
2023/03/11 11:42:39;;;;;;;8.35;0.68;;;;;;;;;;6218406;28;20107;-76
2023/03/11 11:45:43;;;;;;;5.57;0.32;;;;;;;;;;6217315;28;20057;-67
2023/03/11 11:48:49;;;;;;;0.35;0.10;;;;;;;;;;6222742;28;20049;-74
2023/03/11 11:51:55;;;;;;;0.98;0.22;;;;;;;;;;6225719;28;20061;-70
2023/03/11 11:55:01;;;;;;;0.55;0.10;;;;;;;;;;6223920;28;20131;-72
2023/03/11 11:58:04;;;;;;;4.05;0.20;;;;;;;;;;6221544;28;20046;-79
2023/03/11 12:01:14;;;;;;;3.08;0.30;;;;;;;;;;6224209;28;20050;-74
2023/03/11 12:04:39;;;;;;;0.30;0.30;;;;;;;;;;6222911;28;20054;-73
2023/03/11 12:07:49;;;;;;;0.45;0.30;;;;;;;;;;6223470;28;20053;-72
2023/03/11 12:10:55;;;;;;;0.35;0.20;;;;;;;;;;6219406;28;20107;-75
2023/03/11 12:14:03;;;;;;;1.40;0.30;;;;;;;;;;6224450;28;20329;-73
2023/03/11 12:17:05;;;;;;;0.80;0.50;;;;;;;;;;6232470;28;20045;-68
2023/03/11 12:20:11;;;;;;;1.83;0.85;;;;;;;;;;6231396;28;20057;-72
2023/03/11 12:23:18;;;;;;;1.10;0.60;;;;;;;;;;6235827;28;20176;-75
2023/03/11 12:26:22;;;;;;;1.70;0.60;;;;;;;;;;6221266;28;20273;-75
2023/03/11 12:29:26;;;;;;;1.15;0.60;;;;;;;;;;6226649;28;20223;-76
2023/03/11 12:32:32;;;;;;;2.65;0.20;;;;;;;;;;6222691;28;20100;-69
2023/03/11 12:35:35;;;;;;;1.88;0.40;;;;;;;;;;6231615;28;20274;-75
2023/03/11 12:38:39;;;;;;;1.25;0.90;;;;;;;;;;6229597;28;20224;-75
2023/03/11 12:41:42;;;;;;;3.00;0.50;;;;;;;;;;6229070;28;20108;-76
2023/03/11 12:44:45;;;;;;;1.02;0.40;;;;;;;;;;6228863;28;20246;-69
2023/03/11 12:48:32;;;;;;;0.25;0.25;;;;;;;;;;6230645;28;20058;-75
2023/03/11 12:51:40;;;;;;;0.70;0.30;;;;;;;;;;6228644;28;20099;-74
2023/03/11 12:54:42;;;;;;;0.30;0.30;;;;;;;;;;6234678;28;20075;-72
2023/03/11 12:57:54;;;;;;;0.30;0.20;;;;;;;;;;6238630;28;20065;-71
2023/03/11 13:01:30;;;;;;;0.30;0.30;;;;;;;;;;6224611;28;20141;-76
2023/03/11 13:04:40;;;;;;;1.48;0.40;;;;;;;;;;6225239;28;20049;-77
2023/03/11 13:07:46;;;;;;;0.68;0.40;;;;;;;;;;6239340;28;20319;-76
2023/03/11 13:10:49;;;;;;;0.45;0.40;;;;;;;;;;6232644;28;20084;-76
2023/03/11 13:13:52;;;;;;;0.73;0.30;;;;;;;;;;6235407;28;20054;-76
2023/03/11 13:16:54;;;;;;;0.47;0.20;;;;;;;;;;6222322;28;20088;-77
2023/03/11 13:19:56;;;;;;;0.40;0.30;;;;;;;;;;6230752;28;20081;-73
2023/03/11 13:23:09;;;;;;;1.13;0.57;;;;;;;;;;6230071;28;20108;-66
2023/03/11 13:26:17;;;;;;;;;;;;;;;;;;6226909;28;20512;-76
2023/03/11 13:29:44;;;;;;;0.80;0.60;;;;;;;;;;6226154;28;20165;-76
2023/03/11 13:33:11;;;;;;;2.03;0.30;;;;;;;;;;6230233;28;20120;-75
2023/03/11 13:36:36;;;;;;;1.35;0.30;;;;;;;;;;6224845;28;20045;-77
2023/03/11 13:39:59;;;;;;;0.35;0.30;;;;;;;;;;6225535;28;20093;-77
2023/03/11 13:43:03;;;;;;;0.43;0.30;;;;;;;;;;6223300;28;20038;-77
2023/03/11 13:46:13;;;;;;;0.40;0.30;;;;;;;;;;6242320;28;20191;-66
2023/03/11 13:49:23;;;;;;;0.63;0.30;;;;;;;;;;6227332;28;20273;-76
2023/03/11 13:52:27;;;;;;;0.95;0.28;;;;;;;;;;6228042;28;20077;-77
2023/03/11 13:55:33;;;;;;;1.25;0.30;;;;;;;;;;6242655;28;20170;-77
2023/03/11 13:58:35;;;;;;;2.60;0.50;;;;;;;;;;6230096;28;20192;-76
2023/03/11 14:01:38;;;;;;;0.27;0.17;;;;;;;;;;6223664;28;20054;-77
2023/03/11 14:04:42;;;;;;;0.60;0.30;;;;;;;;;;6226315;28;20061;-76
2023/03/11 14:07:44;;;;;;;0.60;0.40;;;;;;;;;;6227886;28;20269;-72
2023/03/11 14:10:52;;;;;;;1.38;0.40;;;;;;;;;;6232052;28;20125;-75
2023/03/11 14:13:54;;;;;;;1.10;0.32;;;;;;;;;;6233439;28;20058;-68
2023/03/11 14:17:00;;;;;;;0.30;0.30;;;;;;;;;;6229563;28;20050;-77
2023/03/11 14:20:05;;;;;;;0.63;0.30;;;;;;;;;;6225467;28;20053;-73
2023/03/11 14:23:17;;;;;;;0.70;0.40;;;;;;;;;;6222729;28;20065;-75
2023/03/11 14:26:20;;;;;;;0.60;0.40;;;;;;;;;;6226209;28;20050;-76
2023/03/11 14:29:30;;;;;;;2.30;0.40;;;;;;;;;;6222430;28;20104;-67
2023/03/11 14:32:34;;;;;;;2.78;0.38;;;;;;;;;;6223108;28;20065;-78
2023/03/11 14:35:36;;;;;;;0.50;0.30;;;;;;;;;;6225201;28;20153;-78
2023/03/11 14:38:43;;;;;;;3.10;0.40;;;;;;;;;;6222363;28;20046;-79
2023/03/11 14:41:45;;;;;;;0.85;0.20;;;;;;;;;;6221565;28;20066;-76
2023/03/11 14:44:49;;;;;;;0.35;0.30;;;;;;;;;;6220711;28;20108;-78
2023/03/11 14:47:55;;;;;;;0.40;0.30;;;;;;;;;;6223219;28;20061;-78
2023/03/11 14:50:58;;;;;;;0.20;0.20;;;;;;;;;;6218912;28;20045;-79
2023/03/11 14:54:06;;;;;;;4.82;2.05;;;;;;;;;;6220698;28;20383;-80
2023/03/11 14:57:16;;;;;;;1.95;0.40;;;;;;;;;;6222061;28;20064;-79
2023/03/11 15:00:20;;;;;;;0.45;0.30;;;;;;;;;;6223844;28;20061;-77
2023/03/11 15:03:27;;;;;;;1.48;0.30;;;;;;;;;;6223034;28;20108;-75
2023/03/11 15:06:30;;;;;;;0.50;0.30;;;;;;;;;;6222142;28;20082;-80
2023/03/11 15:09:31;;;;;;;;;;;;;;;;;;6226627;28;20372;-77
2023/03/11 15:12:34;;;;;;;0.45;0.30;;;;;;;;;;6225535;28;19921;-76
2023/03/11 15:15:36;;;;;;;1.27;0.55;;;;;;;;;;6225204;28;20094;-80
2023/03/11 15:18:41;;;;;;;1.80;0.50;;;;;;;;;;6226513;28;20065;-80
2023/03/11 15:21:45;;;;;;;1.95;0.47;;;;;;;;;;6219894;28;20062;-75
2023/03/11 15:24:49;;;;;;;2.88;0.98;;;;;;;;;;6222328;28;20064;-70
2023/03/11 15:27:51;;;;;;;2.53;0.60;;;;;;;;;;6221843;28;20408;-77
2023/03/11 15:31:14;;;;;;;2.42;1.10;;;;;;;;;;6220215;28;20057;-77
2023/03/11 15:34:31;;;;;;;1.20;0.65;;;;;;;;;;6226949;28;20338;-77
2023/03/11 15:37:32;;;;;;;0.88;0.50;;;;;;;;;;6229802;28;20333;-77
2023/03/11 15:40:34;;;;;;;1.10;0.57;;;;;;;;;;6227810;28;20057;-76
2023/03/11 15:43:43;;;;;;;2.40;0.47;;;;;;;;;;6225334;28;20053;-76
2023/03/11 15:46:46;;;;;;;2.33;0.90;;;;;;;;;;6227673;28;20058;-77
2023/03/11 15:49:49;;;;;;;1.90;0.60;;;;;;;;;;6227578;28;20045;-74
2023/03/11 15:52:51;;;;;;;0.38;0.30;;;;;;;;;;6225817;28;20286;-75
2023/03/11 15:55:54;;;;;;;2.08;0.75;;;;;;;;;;6225485;28;20649;-76
2023/03/11 15:58:55;;;;;;;6.85;1.00;;;;;;;;;;6226681;28;20045;-76
2023/03/11 16:01:58;;;;;;;5.63;0.93;;;;;;;;;;6221800;28;20057;-72
2023/03/11 16:05:01;;;;;;;2.88;0.30;;;;;;;;;;6228088;28;20050;-77
2023/03/11 16:08:03;;;;;;;0.57;0.43;;;;;;;;;;6224874;28;20079;-74
2023/03/11 16:11:04;;;;;;;0.65;0.40;;;;;;;;;;6235814;28;20208;-78
2023/03/11 16:14:09;;;;;;;1.65;0.68;;;;;;;;;;6223295;28;20061;-79
2023/03/11 16:17:13;;;;;;;1.10;0.60;;;;;;;;;;6222501;28;20108;-77
2023/03/11 16:20:16;;;;;;;2.42;0.63;;;;;;;;;;6234927;28;20057;-79
2023/03/11 16:23:20;;;;;;;1.65;0.60;;;;;;;;;;6222089;28;20111;-77
2023/03/11 16:26:22;;;;;;;4.00;0.50;;;;;;;;;;6220815;28;20049;-78
2023/03/11 16:29:25;;;;;;;;;;;;;;;;;;6225505;28;20329;-72
2023/03/11 16:32:27;;;;;;;1.88;0.60;;;;;;;;;;6222393;28;19925;-78
2023/03/11 16:35:30;;;;;;;9.13;0.70;;;;;;;;;;6224164;28;20073;-77
2023/03/11 16:38:43;;;;;;;7.05;0.75;;;;;;;;;;6221020;28;20523;-76
2023/03/11 16:41:45;;;;;;;5.82;0.63;;;;;;;;;;6219889;28;20235;-76
2023/03/11 16:44:46;;;;;;;6.80;0.85;;;;;;;;;;6234978;28;20305;-76
2023/03/11 16:47:48;;;;;;;6.73;0.70;;;;;;;;;;6224251;28;20046;-77
2023/03/11 16:50:51;;;;;;;7.03;0.82;;;;;;;;;;6220241;28;20054;-77
2023/03/11 16:53:53;;;;;;;1.73;0.50;;;;;;;;;;6236870;28;20060;-76
2023/03/11 16:56:54;;;;;;;1.40;0.60;;;;;;;;;;6220446;28;20045;-76
2023/03/11 16:59:56;;;;;;;2.17;0.70;;;;;;;;;;6221546;28;20050;-77
2023/03/11 17:02:57;;;;;;;3.78;0.52;;;;;;;;;;6222099;28;20124;-77
2023/03/11 17:06:04;;;;;;;2.55;0.40;;;;;;;;;;6219109;28;20073;-76
2023/03/11 17:09:05;;;;;;;2.28;0.40;;;;;;;;;;6222744;28;20073;-77
2023/03/11 17:12:08;;;;;;;0.88;0.45;;;;;;;;;;6222918;28;20057;-77
2023/03/11 17:15:10;;;;;;;1.13;0.50;;;;;;;;;;6222800;28;20062;-75
2023/03/11 17:18:12;;;;;;;1.00;0.70;;;;;;;;;;6218375;28;20123;-74
2023/03/11 17:21:16;;;;;;;7.75;1.00;;;;;;;;;;6218896;28;20078;-76
2023/03/11 17:24:18;;;;;;;3.63;0.70;;;;;;;;;;6221277;28;20057;-71
2023/03/11 17:27:19;;;;;;;0.90;0.45;;;;;;;;;;6222344;28;20080;-75
2023/03/11 17:30:21;;;;;;;1.30;0.60;;;;;;;;;;6219285;28;20105;-73
2023/03/11 17:33:22;;;;;;;1.88;0.63;;;;;;;;;;6220878;28;20059;-76
2023/03/11 17:36:25;;;;;;;1.17;0.60;;;;;;;;;;6222886;28;20102;-74
2023/03/11 17:39:27;;;;;;;1.73;0.70;;;;;;;;;;6219034;28;20054;-76
2023/03/11 17:42:29;;;;;;;4.22;0.68;;;;;;;;;;6220312;28;20057;-76
2023/03/11 17:45:30;;;;;;;0.80;0.50;;;;;;;;;;6221720;28;20054;-76
2023/03/11 17:48:32;;;;;;;3.17;0.80;;;;;;;;;;6220481;28;20404;-70
2023/03/11 17:51:35;;;;;;;1.25;0.82;;;;;;;;;;6218334;28;20058;-77
2023/03/11 17:54:37;;;;;;;1.95;0.75;;;;;;;;;;6220691;28;20299;-76
2023/03/11 17:57:38;;;;;;;2.10;0.70;;;;;;;;;;6217426;28;20065;-73
2023/03/11 18:00:40;;;;;;;1.88;0.70;;;;;;;;;;6216094;28;20057;-75
2023/03/11 18:03:42;;;;;;;1.13;0.70;;;;;;;;;;6219282;28;20053;-76
2023/03/11 18:06:45;;;;;;;1.17;0.70;;;;;;;;;;6218853;28;20072;-75
2023/03/11 18:09:46;;;;;;;1.83;0.73;;;;;;;;;;6220296;28;20242;-76
2023/03/11 18:12:48;;;;;;;1.67;0.65;;;;;;;;;;6219088;28;20061;-76
2023/03/11 18:15:56;;;;;;;1.35;0.80;;;;;;;;;;6216570;28;20050;-73
2023/03/11 18:18:58;;;;;;;5.13;0.70;;;;;;;;;;6241446;28;20049;-72
2023/03/11 18:22:01;;;;;;;3.05;0.52;;;;;;;;;;6241562;28;20355;-72
2023/03/11 18:25:03;;;;;;;5.07;1.00;;;;;;;;;;6247267;28;20114;-79